SBI775 KPBI-TXKF
Flight info
| Callsign | SBI775 |
|---|---|
| Flight time | N/A |
| Altitude | 35000 |
| Route | AHABB1 AHABB DCT PBI A699 SUMRS M327 JIMAC POPOP1 |
| Aircraft | B738/M-VGDW/C |
Departure
| Time | 2026-04-08 14:58 |
|---|---|
| Airport | Palm Beach International Airport (KPBI) |
Arrival
| Time | N/A |
|---|---|
| Airport | L.F. Wade International Airport (TXKF) |
| Time | Latitude | Longitude | Altitude | Speed | Heading |
|---|---|---|---|---|---|
| 2026-04-08 14:41 | 26.67953 | -80.09987 | 11 ft | 0 kts | 97° |
| 2026-04-08 14:46 | 26.67961 | -80.09970 | 21 ft | 3 kts | 33° |
| 2026-04-08 14:47 | 26.67981 | -80.09972 | 21 ft | 3 kts | 348° |
| 2026-04-08 14:47 | 26.67999 | -80.09981 | 21 ft | 3 kts | 327° |
| 2026-04-08 14:47 | 26.68010 | -80.09993 | 21 ft | 2 kts | 307° |
| 2026-04-08 14:47 | 26.68017 | -80.10008 | 22 ft | 2 kts | 288° |
| 2026-04-08 14:48 | 26.68017 | -80.10025 | 21 ft | 2 kts | 270° |
| 2026-04-08 14:48 | 26.68017 | -80.10040 | 21 ft | 2 kts | 271° |
| 2026-04-08 14:48 | 26.68017 | -80.10059 | 21 ft | 3 kts | 271° |
| 2026-04-08 14:48 | 26.68015 | -80.10081 | 21 ft | 3 kts | 255° |
| 2026-04-08 14:49 | 26.68003 | -80.10106 | 22 ft | 5 kts | 238° |
| 2026-04-08 14:49 | 26.67980 | -80.10144 | 21 ft | 7 kts | 240° |
| 2026-04-08 14:49 | 26.67972 | -80.10201 | 21 ft | 8 kts | 274° |
| 2026-04-08 14:49 | 26.67976 | -80.10287 | 23 ft | 13 kts | 272° |
| 2026-04-08 14:50 | 26.67980 | -80.10390 | 20 ft | 14 kts | 273° |
| 2026-04-08 14:50 | 26.67985 | -80.10498 | 20 ft | 13 kts | 272° |
| 2026-04-08 14:50 | 26.67999 | -80.10571 | 21 ft | 9 kts | 318° |
| 2026-04-08 14:50 | 26.68057 | -80.10580 | 20 ft | 7 kts | 348° |
| 2026-04-08 14:51 | 26.68081 | -80.10598 | 20 ft | 4 kts | 307° |
| 2026-04-08 14:51 | 26.68081 | -80.10600 | 20 ft | 0 kts | 305° |
| 2026-04-08 14:51 | 26.68082 | -80.10600 | 20 ft | 1 kts | 305° |
| 2026-04-08 14:52 | 26.68098 | -80.10615 | 22 ft | 4 kts | 336° |
| 2026-04-08 14:52 | 26.68126 | -80.10618 | 20 ft | 4 kts | 359° |
| 2026-04-08 14:52 | 26.68161 | -80.10618 | 20 ft | 5 kts | 1° |
| 2026-04-08 14:52 | 26.68195 | -80.10625 | 22 ft | 4 kts | 332° |
| 2026-04-08 14:53 | 26.68207 | -80.10641 | 20 ft | 2 kts | 296° |
| 2026-04-08 14:53 | 26.68207 | -80.10660 | 20 ft | 3 kts | 269° |
| 2026-04-08 14:53 | 26.68207 | -80.10704 | 20 ft | 9 kts | 271° |
| 2026-04-08 14:53 | 26.68210 | -80.10769 | 20 ft | 0 kts | 272° |
| 2026-04-08 14:55 | 26.68210 | -80.10771 | 20 ft | 1 kts | 272° |
| 2026-04-08 14:56 | 26.68210 | -80.10780 | 20 ft | 2 kts | 272° |
| 2026-04-08 14:56 | 26.68215 | -80.10807 | 20 ft | 6 kts | 295° |
| 2026-04-08 14:56 | 26.68252 | -80.10828 | 23 ft | 7 kts | 358° |
| 2026-04-08 14:56 | 26.68301 | -80.10819 | 20 ft | 7 kts | 38° |
| 2026-04-08 14:57 | 26.68316 | -80.10768 | 20 ft | 7 kts | 90° |
| 2026-04-08 14:57 | 26.68306 | -80.10509 | 23 ft | 76 kts | 94° |
| 2026-04-08 14:57 | 26.68274 | -80.09605 | 23 ft | 154 kts | 95° |
| 2026-04-08 14:57 | 26.68196 | -80.08221 | 457 ft | 188 kts | 89° |
| 2026-04-08 14:58 | 26.68057 | -80.06812 | 1758 ft | 174 kts | 95° |
| 2026-04-08 14:58 | 26.67919 | -80.05598 | 3251 ft | 152 kts | 89° |
| 2026-04-08 14:58 | 26.68390 | -80.04497 | 3744 ft | 180 kts | 34° |
| 2026-04-08 14:58 | 26.69716 | -80.04194 | 3999 ft | 212 kts | 9° |
| 2026-04-08 14:59 | 26.71073 | -80.03560 | 4250 ft | 218 kts | 48° |
| 2026-04-08 14:59 | 26.71984 | -80.02163 | 4642 ft | 227 kts | 58° |
| 2026-04-08 14:59 | 26.72888 | -80.00678 | 5174 ft | 229 kts | 57° |
| 2026-04-08 14:59 | 26.73793 | -79.99221 | 5808 ft | 231 kts | 56° |
| 2026-04-08 15:00 | 26.74734 | -79.97719 | 6258 ft | 240 kts | 56° |
| 2026-04-08 15:00 | 26.75699 | -79.96198 | 6900 ft | 239 kts | 54° |
| 2026-04-08 15:00 | 26.76682 | -79.94660 | 7366 ft | 250 kts | 54° |
| 2026-04-08 15:00 | 26.77725 | -79.93038 | 7709 ft | 264 kts | 54° |
| 2026-04-08 15:01 | 26.78821 | -79.91342 | 8267 ft | 275 kts | 53° |
| 2026-04-08 15:01 | 26.79968 | -79.89574 | 8854 ft | 285 kts | 53° |
| 2026-04-08 15:01 | 26.81159 | -79.87743 | 9480 ft | 297 kts | 52° |
| 2026-04-08 15:01 | 26.82396 | -79.85850 | 10019 ft | 314 kts | 52° |
| 2026-04-08 15:02 | 26.83730 | -79.83806 | 10343 ft | 332 kts | 52° |
| 2026-04-08 15:02 | 26.85128 | -79.81662 | 10720 ft | 347 kts | 53° |
| 2026-04-08 15:02 | 26.86579 | -79.79438 | 11107 ft | 360 kts | 53° |
| 2026-04-08 15:02 | 26.88087 | -79.77132 | 11356 ft | 376 kts | 53° |
| 2026-04-08 15:03 | 26.89654 | -79.74732 | 11545 ft | 394 kts | 52° |
| 2026-04-08 15:03 | 26.91294 | -79.72216 | 11947 ft | 403 kts | 53° |
| 2026-04-08 15:03 | 26.92962 | -79.69662 | 12485 ft | 409 kts | 53° |
| 2026-04-08 15:03 | 26.94647 | -79.67078 | 13092 ft | 412 kts | 52° |
| 2026-04-08 15:04 | 26.96348 | -79.64467 | 13647 ft | 417 kts | 53° |
| 2026-04-08 15:04 | 26.98066 | -79.61830 | 14172 ft | 421 kts | 52° |
| 2026-04-08 15:04 | 26.99798 | -79.59169 | 14705 ft | 424 kts | 52° |
| 2026-04-08 15:04 | 27.01543 | -79.56484 | 15188 ft | 428 kts | 52° |
| 2026-04-08 15:05 | 27.03305 | -79.53771 | 15635 ft | 433 kts | 52° |
| 2026-04-08 15:05 | 27.05090 | -79.51023 | 16065 ft | 438 kts | 53° |
| 2026-04-08 15:05 | 27.06892 | -79.48247 | 16568 ft | 441 kts | 52° |
| 2026-04-08 15:05 | 27.08711 | -79.45445 | 17006 ft | 446 kts | 53° |
| 2026-04-08 15:06 | 27.10517 | -79.42659 | 17450 ft | 450 kts | 53° |
| 2026-04-08 15:06 | 27.12364 | -79.39810 | 17869 ft | 454 kts | 52° |
| 2026-04-08 15:06 | 27.14226 | -79.36935 | 18346 ft | 456 kts | 52° |
| 2026-04-08 15:06 | 27.16098 | -79.34043 | 18729 ft | 459 kts | 53° |
| 2026-04-08 15:07 | 27.17984 | -79.31127 | 19069 ft | 463 kts | 53° |
| 2026-04-08 15:07 | 27.19881 | -79.28192 | 19453 ft | 466 kts | 53° |
| 2026-04-08 15:07 | 27.21796 | -79.25227 | 19838 ft | 469 kts | 53° |
| 2026-04-08 15:07 | 27.23066 | -79.23261 | 20074 ft | 471 kts | 53° |
| 2026-04-08 15:08 | 27.24996 | -79.20269 | 20413 ft | 474 kts | 53° |
| 2026-04-08 15:08 | 27.26939 | -79.17256 | 20751 ft | 477 kts | 53° |
| 2026-04-08 15:08 | 27.28893 | -79.14224 | 21100 ft | 480 kts | 53° |
| 2026-04-08 15:08 | 27.30859 | -79.11169 | 21427 ft | 483 kts | 53° |
| 2026-04-08 15:09 | 27.32836 | -79.08098 | 21761 ft | 486 kts | 53° |
| 2026-04-08 15:09 | 27.34826 | -79.05003 | 22074 ft | 489 kts | 53° |
| 2026-04-08 15:09 | 27.36827 | -79.01887 | 22395 ft | 492 kts | 53° |
| 2026-04-08 15:09 | 27.38841 | -78.98749 | 22699 ft | 495 kts | 53° |
| 2026-04-08 15:10 | 27.40862 | -78.95601 | 22992 ft | 498 kts | 53° |
| 2026-04-08 15:10 | 27.42891 | -78.92430 | 23273 ft | 501 kts | 53° |
| 2026-04-08 15:10 | 27.44926 | -78.89231 | 23553 ft | 503 kts | 53° |
| 2026-04-08 15:10 | 27.46963 | -78.86019 | 23804 ft | 506 kts | 53° |
| 2026-04-08 15:11 | 27.49007 | -78.82793 | 24036 ft | 508 kts | 53° |
| 2026-04-08 15:11 | 27.51068 | -78.79544 | 24278 ft | 510 kts | 53° |
| 2026-04-08 15:11 | 27.53138 | -78.76278 | 24520 ft | 512 kts | 53° |
| 2026-04-08 15:11 | 27.55181 | -78.73054 | 24747 ft | 514 kts | 53° |
| 2026-04-08 15:12 | 27.57289 | -78.69724 | 24972 ft | 516 kts | 52° |
| 2026-04-08 15:12 | 27.59349 | -78.66468 | 25183 ft | 517 kts | 52° |
| 2026-04-08 15:12 | 27.61398 | -78.63131 | 25453 ft | 519 kts | 55° |
| 2026-04-08 15:12 | 27.63311 | -78.59660 | 25640 ft | 522 kts | 58° |
| 2026-04-08 15:13 | 27.65143 | -78.56102 | 25838 ft | 525 kts | 59° |
| 2026-04-08 15:13 | 27.66940 | -78.52518 | 26051 ft | 526 kts | 59° |
| 2026-04-08 15:13 | 27.68745 | -78.48911 | 26262 ft | 528 kts | 59° |
| 2026-04-08 15:13 | 27.70565 | -78.45309 | 26529 ft | 528 kts | 58° |
| 2026-04-08 15:14 | 27.72397 | -78.41720 | 26849 ft | 527 kts | 58° |
| 2026-04-08 15:14 | 27.74238 | -78.38141 | 27163 ft | 527 kts | 58° |
| 2026-04-08 15:14 | 27.76089 | -78.34559 | 27445 ft | 527 kts | 57° |
| 2026-04-08 15:14 | 27.77941 | -78.30981 | 27727 ft | 528 kts | 57° |
| 2026-04-08 15:15 | 27.79792 | -78.27402 | 28038 ft | 528 kts | 57° |
| 2026-04-08 15:15 | 27.81638 | -78.23827 | 28363 ft | 527 kts | 57° |
| 2026-04-08 15:15 | 27.83489 | -78.20237 | 28667 ft | 528 kts | 57° |
| 2026-04-08 15:15 | 27.85341 | -78.16641 | 28973 ft | 528 kts | 57° |
| 2026-04-08 15:16 | 27.87185 | -78.13055 | 29289 ft | 529 kts | 57° |
| 2026-04-08 15:16 | 27.89036 | -78.09452 | 29543 ft | 530 kts | 56° |
| 2026-04-08 15:16 | 27.90865 | -78.05889 | 29857 ft | 531 kts | 56° |
| 2026-04-08 15:16 | 27.92716 | -78.02277 | 30216 ft | 530 kts | 56° |
| 2026-04-08 15:17 | 27.94567 | -77.98665 | 30505 ft | 530 kts | 56° |
| 2026-04-08 15:17 | 27.96415 | -77.95054 | 30752 ft | 530 kts | 56° |
| 2026-04-08 15:17 | 27.98261 | -77.91446 | 31050 ft | 530 kts | 56° |
| 2026-04-08 15:17 | 28.00103 | -77.87843 | 31340 ft | 529 kts | 56° |
| 2026-04-08 15:18 | 28.03793 | -77.80614 | 31831 ft | 531 kts | 56° |
| 2026-04-08 15:18 | 28.05641 | -77.76989 | 32118 ft | 531 kts | 56° |
| 2026-04-08 15:18 | 28.07491 | -77.73358 | 32396 ft | 531 kts | 56° |
| 2026-04-08 15:19 | 28.09341 | -77.69721 | 32644 ft | 532 kts | 55° |
| 2026-04-08 15:19 | 28.11163 | -77.66139 | 32919 ft | 533 kts | 56° |
| 2026-04-08 15:19 | 28.13018 | -77.62491 | 33170 ft | 533 kts | 55° |
| 2026-04-08 15:19 | 28.14932 | -77.58907 | 33436 ft | 531 kts | 53° |
| 2026-04-08 15:20 | 28.16913 | -77.55379 | 33781 ft | 528 kts | 52° |
| 2026-04-08 15:20 | 28.18894 | -77.51873 | 34077 ft | 528 kts | 52° |
| 2026-04-08 15:20 | 28.20838 | -77.48379 | 34277 ft | 529 kts | 53° |
| 2026-04-08 15:20 | 28.22789 | -77.44832 | 34461 ft | 530 kts | 53° |
| 2026-04-08 15:21 | 28.24743 | -77.41269 | 34687 ft | 529 kts | 53° |
| 2026-04-08 15:21 | 28.26687 | -77.37720 | 34932 ft | 528 kts | 53° |
| 2026-04-08 15:21 | 28.28605 | -77.34218 | 35160 ft | 528 kts | 53° |
| 2026-04-08 15:21 | 28.30545 | -77.30676 | 35366 ft | 528 kts | 53° |
| 2026-04-08 15:22 | 28.32483 | -77.27135 | 35563 ft | 528 kts | 53° |
| 2026-04-08 15:22 | 28.34421 | -77.23593 | 35778 ft | 527 kts | 53° |
| 2026-04-08 15:22 | 28.36356 | -77.20053 | 36046 ft | 526 kts | 53° |
| 2026-04-08 15:22 | 28.38280 | -77.16530 | 36310 ft | 524 kts | 53° |
| 2026-04-08 15:23 | 28.40199 | -77.13013 | 36497 ft | 524 kts | 53° |
| 2026-04-08 15:23 | 28.42122 | -77.09486 | 36654 ft | 525 kts | 53° |
| 2026-04-08 15:23 | 28.44042 | -77.05961 | 36822 ft | 525 kts | 53° |
| 2026-04-08 15:23 | 28.45962 | -77.02434 | 37027 ft | 524 kts | 53° |
| 2026-04-08 15:24 | 28.47880 | -76.98907 | 37236 ft | 523 kts | 53° |
| 2026-04-08 15:24 | 28.49772 | -76.95426 | 37412 ft | 523 kts | 53° |
| 2026-04-08 15:24 | 28.51684 | -76.91906 | 37569 ft | 524 kts | 53° |
| 2026-04-08 15:24 | 28.53598 | -76.88379 | 37747 ft | 523 kts | 53° |
| 2026-04-08 15:25 | 28.55509 | -76.84855 | 37935 ft | 522 kts | 53° |
| 2026-04-08 15:25 | 28.57411 | -76.81341 | 38194 ft | 520 kts | 53° |
| 2026-04-08 15:25 | 28.59305 | -76.77841 | 38470 ft | 517 kts | 53° |
| 2026-04-08 15:25 | 28.61186 | -76.74361 | 38796 ft | 514 kts | 54° |
| 2026-04-08 15:26 | 28.63059 | -76.70894 | 38978 ft | 513 kts | 54° |
| 2026-04-08 15:26 | 28.64924 | -76.67441 | 39080 ft | 513 kts | 54° |
| 2026-04-08 15:26 | 28.68668 | -76.60500 | 39116 ft | 516 kts | 54° |
| 2026-04-08 15:27 | 28.72382 | -76.53549 | 39123 ft | 518 kts | 56° |
| 2026-04-08 15:27 | 28.75928 | -76.46317 | 39120 ft | 521 kts | 57° |
| 2026-04-08 15:28 | 28.79372 | -76.39062 | 39115 ft | 522 kts | 57° |
| 2026-04-08 15:28 | 28.82844 | -76.31801 | 39117 ft | 521 kts | 57° |
| 2026-04-08 15:29 | 28.86338 | -76.24555 | 39117 ft | 521 kts | 58° |
| 2026-04-08 15:29 | 28.89827 | -76.17331 | 39113 ft | 518 kts | 58° |
| 2026-04-08 15:30 | 28.93273 | -76.10182 | 39109 ft | 515 kts | 58° |
| 2026-04-08 15:30 | 28.96720 | -76.03013 | 39105 ft | 513 kts | 58° |
| 2026-04-08 15:31 | 29.00141 | -75.95886 | 39119 ft | 510 kts | 58° |
| 2026-04-08 15:31 | 29.03549 | -75.88773 | 39114 ft | 509 kts | 58° |
| 2026-04-08 15:32 | 29.06922 | -75.81721 | 39162 ft | 508 kts | 58° |
| 2026-04-08 15:32 | 29.10315 | -75.74618 | 39122 ft | 508 kts | 58° |
| 2026-04-08 15:33 | 29.13701 | -75.67514 | 39124 ft | 509 kts | 58° |
| 2026-04-08 15:33 | 29.17087 | -75.60396 | 39121 ft | 510 kts | 58° |
| 2026-04-08 15:34 | 29.20478 | -75.53256 | 39123 ft | 511 kts | 59° |
| 2026-04-08 15:34 | 29.23873 | -75.46095 | 39114 ft | 512 kts | 59° |
| 2026-04-08 15:35 | 29.27272 | -75.38912 | 39123 ft | 513 kts | 59° |
| 2026-04-08 15:35 | 29.30651 | -75.31761 | 39140 ft | 514 kts | 59° |
| 2026-04-08 15:36 | 29.34054 | -75.24543 | 39129 ft | 515 kts | 59° |
| 2026-04-08 15:36 | 29.37465 | -75.17297 | 39131 ft | 516 kts | 59° |
| 2026-04-08 15:37 | 29.40856 | -75.10076 | 39124 ft | 515 kts | 59° |
| 2026-04-08 15:37 | 29.44260 | -75.02818 | 39114 ft | 514 kts | 59° |
| 2026-04-08 15:38 | 29.47623 | -74.95632 | 39121 ft | 512 kts | 59° |
| 2026-04-08 15:38 | 29.50987 | -74.88433 | 39117 ft | 510 kts | 59° |
| 2026-04-08 15:39 | 29.54318 | -74.81291 | 39137 ft | 508 kts | 60° |
| 2026-04-08 15:39 | 29.57634 | -74.74170 | 39125 ft | 506 kts | 60° |
| 2026-04-08 15:40 | 29.60960 | -74.67014 | 39123 ft | 505 kts | 60° |
| 2026-04-08 15:40 | 29.64260 | -74.59901 | 39126 ft | 504 kts | 60° |
| 2026-04-08 15:41 | 29.67541 | -74.52816 | 39129 ft | 503 kts | 60° |
| 2026-04-08 15:41 | 29.70812 | -74.45739 | 39129 ft | 504 kts | 60° |
| 2026-04-08 15:42 | 29.74105 | -74.38603 | 39132 ft | 505 kts | 60° |
| 2026-04-08 15:42 | 29.77401 | -74.31447 | 39120 ft | 507 kts | 60° |
| 2026-04-08 15:43 | 29.80702 | -74.24266 | 39129 ft | 508 kts | 60° |
| 2026-04-08 15:43 | 29.84003 | -74.17071 | 39120 ft | 509 kts | 60° |
| 2026-04-08 15:44 | 29.87311 | -74.09849 | 39124 ft | 510 kts | 60° |
| 2026-04-08 15:44 | 29.90621 | -74.02610 | 39115 ft | 510 kts | 60° |
| 2026-04-08 15:45 | 29.93907 | -73.95408 | 39109 ft | 510 kts | 60° |
| 2026-04-08 15:45 | 29.97206 | -73.88167 | 39131 ft | 510 kts | 61° |
| 2026-04-08 15:46 | 30.00501 | -73.80919 | 39115 ft | 509 kts | 61° |
| 2026-04-08 15:46 | 30.03785 | -73.73680 | 39105 ft | 508 kts | 61° |
| 2026-04-08 15:47 | 30.07050 | -73.66472 | 39115 ft | 506 kts | 61° |
| 2026-04-08 15:47 | 30.10308 | -73.59266 | 39097 ft | 505 kts | 62° |
| 2026-04-08 15:48 | 30.13528 | -73.52129 | 39109 ft | 503 kts | 62° |
| 2026-04-08 15:48 | 30.16751 | -73.44974 | 39099 ft | 501 kts | 62° |
| 2026-04-08 15:49 | 30.19963 | -73.37832 | 39110 ft | 500 kts | 62° |
| 2026-04-08 15:49 | 30.23166 | -73.30692 | 39108 ft | 499 kts | 62° |
| 2026-04-08 15:50 | 30.26359 | -73.23563 | 39104 ft | 498 kts | 62° |
| 2026-04-08 15:50 | 30.29519 | -73.16497 | 39100 ft | 498 kts | 62° |
| 2026-04-08 15:51 | 30.32698 | -73.09372 | 39111 ft | 498 kts | 62° |
| 2026-04-08 15:51 | 30.35877 | -73.02235 | 39119 ft | 499 kts | 62° |
| 2026-04-08 15:52 | 30.39059 | -72.95079 | 39106 ft | 501 kts | 63° |
| 2026-04-08 15:52 | 30.42241 | -72.87906 | 39100 ft | 501 kts | 63° |
| 2026-04-08 15:53 | 30.45412 | -72.80746 | 39095 ft | 501 kts | 63° |
| 2026-04-08 15:53 | 30.48590 | -72.73558 | 39101 ft | 501 kts | 63° |
| 2026-04-08 15:54 | 30.51762 | -72.66367 | 39097 ft | 500 kts | 63° |
| 2026-04-08 15:54 | 30.54928 | -72.59179 | 39086 ft | 500 kts | 63° |
| 2026-04-08 15:55 | 30.58084 | -72.51999 | 39090 ft | 499 kts | 63° |
| 2026-04-08 15:55 | 30.61233 | -72.44823 | 39100 ft | 499 kts | 64° |
| 2026-04-08 15:56 | 30.64377 | -72.37642 | 39099 ft | 498 kts | 64° |
| 2026-04-08 15:56 | 30.66984 | -72.31677 | 39090 ft | 498 kts | 64° |
| 2026-04-08 15:57 | 30.70624 | -72.23332 | 39069 ft | 497 kts | 64° |
| 2026-04-08 15:57 | 30.73214 | -72.17382 | 39085 ft | 496 kts | 64° |
| 2026-04-08 15:58 | 30.76323 | -72.10227 | 39086 ft | 495 kts | 64° |
| 2026-04-08 15:58 | 30.79422 | -72.03084 | 39088 ft | 495 kts | 64° |
| 2026-04-08 15:59 | 30.82519 | -71.95930 | 39095 ft | 495 kts | 64° |
| 2026-04-08 15:59 | 30.85597 | -71.88806 | 39066 ft | 496 kts | 65° |
| 2026-04-08 16:00 | 30.88693 | -71.81628 | 39089 ft | 496 kts | 65° |
| 2026-04-08 16:00 | 30.91787 | -71.74440 | 39086 ft | 496 kts | 65° |
| 2026-04-08 16:01 | 30.94877 | -71.67248 | 39072 ft | 497 kts | 65° |
| 2026-04-08 16:01 | 30.97966 | -71.60042 | 39093 ft | 497 kts | 65° |
| 2026-04-08 16:02 | 31.01052 | -71.52830 | 39076 ft | 497 kts | 66° |
| 2026-04-08 16:02 | 31.04131 | -71.45622 | 39080 ft | 496 kts | 66° |
| 2026-04-08 16:03 | 31.07181 | -71.38464 | 39090 ft | 495 kts | 66° |
| 2026-04-08 16:03 | 31.10247 | -71.31261 | 39084 ft | 496 kts | 66° |
| 2026-04-08 16:04 | 31.13314 | -71.24040 | 39085 ft | 495 kts | 65° |
| 2026-04-08 16:04 | 31.16367 | -71.16834 | 39086 ft | 496 kts | 65° |
| 2026-04-08 16:05 | 31.19407 | -71.09647 | 39092 ft | 496 kts | 66° |
| 2026-04-08 16:05 | 31.22466 | -71.02400 | 39099 ft | 497 kts | 66° |
| 2026-04-08 16:06 | 31.25504 | -70.95190 | 39079 ft | 496 kts | 66° |
| 2026-04-08 16:06 | 31.28546 | -70.87954 | 39062 ft | 496 kts | 66° |
| 2026-04-08 16:07 | 31.31578 | -70.80730 | 39075 ft | 494 kts | 67° |
| 2026-04-08 16:07 | 31.34595 | -70.73525 | 39070 ft | 492 kts | 67° |
| 2026-04-08 16:08 | 31.37603 | -70.66329 | 39079 ft | 491 kts | 67° |
| 2026-04-08 16:08 | 31.40592 | -70.59160 | 39087 ft | 490 kts | 67° |
| 2026-04-08 16:09 | 31.43562 | -70.52028 | 39072 ft | 490 kts | 68° |
| 2026-04-08 16:09 | 31.46557 | -70.44820 | 39056 ft | 490 kts | 69° |
| 2026-04-08 16:10 | 31.49533 | -70.37646 | 39066 ft | 488 kts | 68° |
| 2026-04-08 16:10 | 31.52486 | -70.30515 | 39073 ft | 486 kts | 69° |
| 2026-04-08 16:11 | 31.55410 | -70.23433 | 39074 ft | 484 kts | 69° |
| 2026-04-08 16:11 | 31.58333 | -70.16341 | 39081 ft | 482 kts | 69° |
| 2026-04-08 16:12 | 31.61245 | -70.09260 | 39080 ft | 481 kts | 69° |
| 2026-04-08 16:12 | 31.64147 | -70.02190 | 39083 ft | 481 kts | 69° |
| 2026-04-08 16:13 | 31.67046 | -69.95113 | 39088 ft | 481 kts | 69° |
| 2026-04-08 16:13 | 31.69946 | -69.88020 | 39083 ft | 481 kts | 69° |
| 2026-04-08 16:14 | 31.72823 | -69.80972 | 39094 ft | 481 kts | 70° |
| 2026-04-08 16:14 | 31.75717 | -69.73868 | 39086 ft | 481 kts | 70° |
| 2026-04-08 16:15 | 31.78609 | -69.66754 | 39084 ft | 482 kts | 70° |
| 2026-04-08 16:15 | 31.81495 | -69.59641 | 39090 ft | 482 kts | 70° |
| 2026-04-08 16:16 | 31.84360 | -69.52565 | 39058 ft | 482 kts | 69° |
| 2026-04-08 16:16 | 31.87243 | -69.45429 | 39078 ft | 481 kts | 70° |
| 2026-04-08 16:17 | 31.91526 | -69.34805 | 39075 ft | 480 kts | 70° |
| 2026-04-08 16:18 | 31.94381 | -69.27705 | 39104 ft | 479 kts | 70° |
| 2026-04-08 16:18 | 31.97232 | -69.20598 | 39078 ft | 479 kts | 70° |
| 2026-04-08 16:19 | 32.00074 | -69.13502 | 39078 ft | 479 kts | 69° |
| 2026-04-08 16:19 | 32.02911 | -69.06402 | 39079 ft | 479 kts | 69° |
| 2026-04-08 16:20 | 32.05750 | -68.99283 | 39058 ft | 480 kts | 69° |
| 2026-04-08 16:20 | 32.08586 | -68.92156 | 39063 ft | 480 kts | 69° |
| 2026-04-08 16:21 | 32.11404 | -68.85062 | 39044 ft | 481 kts | 69° |
| 2026-04-08 16:21 | 32.14238 | -68.77915 | 39059 ft | 481 kts | 69° |
| 2026-04-08 16:22 | 32.17072 | -68.70753 | 39062 ft | 481 kts | 69° |
| 2026-04-08 16:22 | 32.19899 | -68.63591 | 39056 ft | 481 kts | 69° |
| 2026-04-08 16:23 | 32.22721 | -68.56427 | 39052 ft | 481 kts | 69° |
| 2026-04-08 16:23 | 32.25533 | -68.49272 | 39053 ft | 480 kts | 69° |
| 2026-04-08 16:24 | 32.28321 | -68.42169 | 39050 ft | 479 kts | 69° |
| 2026-04-08 16:24 | 32.31115 | -68.35034 | 39074 ft | 478 kts | 69° |
| 2026-04-08 16:25 | 32.33884 | -68.27882 | 39064 ft | 476 kts | 73° |
| 2026-04-08 16:25 | 32.34855 | -68.24179 | 39059 ft | 468 kts | 84° |
| 2026-04-08 16:25 | 32.35322 | -68.20397 | 39066 ft | 461 kts | 91° |
| 2026-04-08 16:26 | 32.35025 | -68.12914 | 39063 ft | 454 kts | 101° |
| 2026-04-08 16:26 | 32.34351 | -68.05496 | 39072 ft | 459 kts | 101° |
| 2026-04-08 16:27 | 32.33683 | -67.97957 | 39075 ft | 463 kts | 101° |
| 2026-04-08 16:27 | 32.33037 | -67.90346 | 39064 ft | 466 kts | 101° |
| 2026-04-08 16:28 | 32.32396 | -67.82695 | 39058 ft | 467 kts | 101° |
| 2026-04-08 16:28 | 32.31759 | -67.75095 | 39036 ft | 460 kts | 101° |
| 2026-04-08 16:29 | 32.31125 | -67.67611 | 39045 ft | 456 kts | 101° |
| 2026-04-08 16:29 | 32.30484 | -67.60152 | 39043 ft | 455 kts | 101° |
| 2026-04-08 16:30 | 32.29841 | -67.52719 | 39015 ft | 455 kts | 101° |
| 2026-04-08 16:30 | 32.29190 | -67.45258 | 39038 ft | 459 kts | 101° |
| 2026-04-08 16:31 | 32.28528 | -67.37714 | 39045 ft | 464 kts | 101° |
| 2026-04-08 16:31 | 32.27856 | -67.30093 | 39043 ft | 468 kts | 101° |
| 2026-04-08 16:32 | 32.27180 | -67.22472 | 39039 ft | 470 kts | 101° |
| 2026-04-08 16:32 | 32.26493 | -67.14783 | 39032 ft | 471 kts | 100° |
| 2026-04-08 16:33 | 32.25795 | -67.07033 | 38511 ft | 474 kts | 101° |
| 2026-04-08 16:33 | 32.25449 | -67.03181 | 37869 ft | 472 kts | 101° |
| 2026-04-08 16:33 | 32.25098 | -66.99317 | 37270 ft | 470 kts | 101° |
| 2026-04-08 16:33 | 32.24750 | -66.95483 | 36651 ft | 469 kts | 100° |
| 2026-04-08 16:34 | 32.24405 | -66.91706 | 36069 ft | 468 kts | 100° |
| 2026-04-08 16:34 | 32.24054 | -66.87884 | 35416 ft | 468 kts | 100° |
| 2026-04-08 16:34 | 32.23700 | -66.84050 | 34774 ft | 469 kts | 100° |
| 2026-04-08 16:34 | 32.23345 | -66.80212 | 34114 ft | 471 kts | 100° |
| 2026-04-08 16:35 | 32.22987 | -66.76352 | 33342 ft | 473 kts | 100° |
| 2026-04-08 16:35 | 32.22626 | -66.72472 | 32611 ft | 474 kts | 100° |
| 2026-04-08 16:35 | 32.22264 | -66.68587 | 31877 ft | 476 kts | 100° |
| 2026-04-08 16:35 | 32.21900 | -66.64698 | 31137 ft | 477 kts | 100° |
| 2026-04-08 16:36 | 32.21533 | -66.60794 | 30355 ft | 480 kts | 100° |
| 2026-04-08 16:36 | 32.21162 | -66.56857 | 29439 ft | 483 kts | 99° |
| 2026-04-08 16:36 | 32.20793 | -66.52958 | 28555 ft | 485 kts | 100° |
| 2026-04-08 16:36 | 32.20417 | -66.48993 | 27645 ft | 486 kts | 100° |
| 2026-04-08 16:37 | 32.20039 | -66.45018 | 26716 ft | 489 kts | 100° |
| 2026-04-08 16:37 | 32.19656 | -66.41005 | 25728 ft | 492 kts | 100° |
| 2026-04-08 16:37 | 32.19271 | -66.36983 | 24966 ft | 491 kts | 99° |
| 2026-04-08 16:37 | 32.18887 | -66.32982 | 24218 ft | 489 kts | 99° |
| 2026-04-08 16:38 | 32.18504 | -66.28999 | 23482 ft | 487 kts | 100° |
| 2026-04-08 16:38 | 32.18123 | -66.25044 | 22654 ft | 484 kts | 100° |
| 2026-04-08 16:38 | 32.17748 | -66.21169 | 21931 ft | 479 kts | 100° |
| 2026-04-08 16:38 | 32.17370 | -66.17277 | 21220 ft | 474 kts | 100° |
| 2026-04-08 16:39 | 32.16994 | -66.13428 | 20524 ft | 469 kts | 100° |
| 2026-04-08 16:39 | 32.16621 | -66.09618 | 19816 ft | 465 kts | 100° |
| 2026-04-08 16:39 | 32.16249 | -66.05842 | 19113 ft | 462 kts | 100° |
| 2026-04-08 16:39 | 32.15879 | -66.02095 | 18419 ft | 458 kts | 101° |
| 2026-04-08 16:40 | 32.15510 | -65.98367 | 17643 ft | 455 kts | 101° |
| 2026-04-08 16:40 | 32.15144 | -65.94680 | 16935 ft | 450 kts | 101° |
| 2026-04-08 16:40 | 32.14781 | -65.91029 | 16209 ft | 446 kts | 101° |
| 2026-04-08 16:40 | 32.14421 | -65.87421 | 15524 ft | 441 kts | 101° |
| 2026-04-08 16:41 | 32.14064 | -65.83851 | 14887 ft | 435 kts | 101° |
| 2026-04-08 16:41 | 32.13709 | -65.80323 | 14245 ft | 430 kts | 101° |
| 2026-04-08 16:41 | 32.13357 | -65.76829 | 13513 ft | 428 kts | 101° |
| 2026-04-08 16:41 | 32.13009 | -65.73374 | 12831 ft | 422 kts | 101° |
| 2026-04-08 16:42 | 32.12668 | -65.70008 | 12391 ft | 413 kts | 101° |
| 2026-04-08 16:42 | 32.12337 | -65.66715 | 12232 ft | 394 kts | 101° |
| 2026-04-08 16:42 | 32.12355 | -65.63538 | 12060 ft | 387 kts | 83° |
| 2026-04-08 16:42 | 32.13220 | -65.60570 | 11641 ft | 380 kts | 65° |
| 2026-04-08 16:43 | 32.14454 | -65.57893 | 11330 ft | 364 kts | 64° |
| 2026-04-08 16:43 | 32.15664 | -65.55329 | 11003 ft | 351 kts | 64° |
| 2026-04-08 16:43 | 32.16831 | -65.52855 | 10696 ft | 338 kts | 64° |
| 2026-04-08 16:43 | 32.17952 | -65.50463 | 10404 ft | 327 kts | 64° |
| 2026-04-08 16:44 | 32.19029 | -65.48147 | 10125 ft | 317 kts | 65° |
| 2026-04-08 16:44 | 32.20070 | -65.45895 | 9857 ft | 308 kts | 65° |
| 2026-04-08 16:44 | 32.20741 | -65.43579 | 9525 ft | 292 kts | 94° |
| 2026-04-08 16:44 | 32.20669 | -65.41211 | 9293 ft | 291 kts | 96° |
| 2026-04-08 16:45 | 32.20715 | -65.38813 | 9038 ft | 293 kts | 93° |
| 2026-04-08 16:45 | 32.20807 | -65.36445 | 8793 ft | 292 kts | 93° |
| 2026-04-08 16:45 | 32.20902 | -65.34057 | 8543 ft | 290 kts | 93° |
| 2026-04-08 16:45 | 32.20989 | -65.31678 | 8292 ft | 288 kts | 93° |
| 2026-04-08 16:46 | 32.21066 | -65.29321 | 8037 ft | 287 kts | 94° |
| 2026-04-08 16:46 | 32.21137 | -65.26967 | 7795 ft | 287 kts | 94° |
| 2026-04-08 16:46 | 32.21202 | -65.24590 | 7569 ft | 292 kts | 94° |
| 2026-04-08 16:46 | 32.21264 | -65.22178 | 7340 ft | 293 kts | 94° |
| 2026-04-08 16:47 | 32.21325 | -65.19817 | 7095 ft | 290 kts | 94° |